Terminal Aerodrome Forecast
Issued by NWS

Current Version | Previous Version | Text Only | Print | Product List | Glossary On
Versions: 1 2 3 4 5 6 7 8 9 10 11 12 13 14 15 16 17 18 19 20 21 22 23 24 25 26 27 28 29 30 31
757
FTUS44 KFWD 281738
TAFDAL
TAF
KDAL 281738Z 2818/2918 17007KT P6SM BKN017
     FM282000 16011KT P6SM SCT015
     FM290500 15008KT P6SM OVC018
     FM291500 15010KT P6SM SCT015 BKN040=

USA.gov is the U.S. government's official web portal to all federal, state and local government web resources and services.